Torre Annunziata, Italy

2:08 PM CEST on May 23, 2017 (GMT +0200)
Napoli | | Change Station

Elev 204 ft 40.75 °N, 14.47 °E | Updated 3 seconds ago

Clear
Clear
69.7 °F
Feels Like 69.7 °F
N
25.3
Wind Variable Wind from West
Gusts 25.3 mph

Today
High -- | Low -- °F
--% Chance of Precip.
Yesterday
High -- | Low -- °F
Precip. -- in
Pressure 30.09 in
Visibility -9999.0 miles
Clouds
Dew Point 60.7 °F
Humidity 73%
Rainfall 0.00 in
Snow Depth Not available.
5:38 AM 8:20 PM
Waning Crescent, 8% visible
METAR LIQC 231155Z 26003KT CAVOK 22/16 Q1019 RMK SKC QUK 1 QUL 0 VIS MAR 30 KM VIS MIN 9999
Pressure 30.09 in
Visibility -9999.0 miles
Clouds
Dew Point 60.7 °F
Humidity 73%
Rainfall 0.00 in
Snow Depth Not available.
5:38 AM 8:20 PM
Waning Crescent, 8% visible
METAR LIQC 231155Z 26003KT CAVOK 22/16 Q1019 RMK SKC QUK 1 QUL 0 VIS MAR 30 KM VIS MIN 9999

Get Severe Weather Alerts

Thanks for signing up!

Be on the lookout for a verification email in your inbox.

You'll start receiving the daily forecast at 6 AM.

×

10-Day Weather Forecast

×

Almanac

Astronomy

May. 23, 2017 Rise Set
Actual Time
Civil Twilight
Nautical Twilight
Astronomical Twilight
Moon
Length of Visible Light
Length of Day
Tomorrow will be .
, % of the Moon is Illuminated

Today's Extremes

Country Highs Country Lows

Community

WunderPhotos

Category 6

Welcome to Category 6. This is the collective home for Weather Underground's featured writeups by Dr. Jeff Masters (right), Bob Henson (left), Chris Burt, and other regular contributors.

Nearby

Air Quality

  Air Quality AQ Index Pollutant
Not available.

Snow Depth

Station Depth Elevation

Earthquake Activity

City Distance Mag. Time & Date
Minimum magnitude displayed is 2.5.

Coastal Water Temperatures

Place Temperature

Stations

Nearby Weather Stations

Station Location Temp. Windchill Dew Point Humidity Wind Precip. Elev Updated Type